Time;durP1;ratioP1;P1;durP2;ratioP2;P2;SDS_P1;SDS_P2;PMS_P1;PMS_P2;Temp;Humidity;BMP_temperature;BMP_pressure;BME280_temperature;BME280_humidity;BME280_pressure;Samples;Min_cycle;Max_cycle;Signal;HPM_P1;HPM_P2
2023/07/19 00:01:54;;;;;;;7.78;4.38;;;;;22.10;98383.00;;;;5013363;28;20510;-64
2023/07/19 00:04:21;;;;;;;9.27;4.35;;;;;22.10;98380.00;;;;5012327;28;20092;-64
2023/07/19 00:06:48;;;;;;;7.55;4.10;;;;;22.10;98376.00;;;;5012572;28;20574;-64
2023/07/19 00:09:14;;;;;;;5.68;3.95;;;;;22.20;98386.00;;;;5013666;28;20121;-67
2023/07/19 00:11:41;;;;;;;7.72;3.85;;;;;22.20;98374.00;;;;5012430;28;20060;-64
2023/07/19 00:14:07;;;;;;;5.18;3.70;;;;;22.20;98381.00;;;;5017960;28;20046;-64
2023/07/19 00:16:34;;;;;;;7.28;4.35;;;;;22.20;98380.00;;;;5032053;28;20050;-64
2023/07/19 00:19:01;;;;;;;5.55;3.80;;;;;22.00;98388.00;;;;5030696;28;20054;-64
2023/07/19 00:21:46;;;;;;;7.28;4.05;;;;;22.00;98390.00;;;;5029730;28;20054;-64
2023/07/19 00:24:12;;;;;;;5.72;4.00;;;;;22.10;98393.00;;;;5030260;28;20046;-64
2023/07/19 00:26:39;;;;;;;8.43;4.63;;;;;22.00;98384.00;;;;5029053;28;20042;-67
2023/07/19 00:29:05;;;;;;;5.15;4.03;;;;;21.80;98375.00;;;;5030146;28;20049;-63
2023/07/19 00:31:32;;;;;;;6.07;4.40;;;;;21.70;98382.00;;;;5032253;28;20030;-64
2023/07/19 00:33:59;;;;;;;5.13;3.92;;;;;21.60;98383.00;;;;5033017;28;20443;-63
2023/07/19 00:36:25;;;;;;;7.85;4.85;;;;;21.50;98381.00;;;;5031224;28;20129;-64
2023/07/19 00:38:52;;;;;;;9.00;4.15;;;;;21.60;98369.00;;;;5012931;28;20093;-63
2023/07/19 00:41:18;;;;;;;8.93;3.88;;;;;21.70;98376.00;;;;5028818;28;20073;-64
2023/07/19 00:43:47;;;;;;;6.20;3.90;;;;;21.80;98365.00;;;;5028427;28;20061;-64
2023/07/19 00:46:14;;;;;;;5.63;4.03;;;;;21.80;98367.00;;;;5013384;28;20077;-64
2023/07/19 00:48:42;;;;;;;7.70;4.45;;;;;21.90;98367.00;;;;5029051;28;20133;-64
2023/07/19 00:51:09;;;;;;;8.77;4.18;;;;;21.70;98362.00;;;;5030389;28;20080;-62
2023/07/19 00:53:38;;;;;;;6.00;3.75;;;;;21.70;98367.00;;;;5032001;28;20050;-63
2023/07/19 00:56:07;;;;;;;5.97;3.88;;;;;21.60;98362.00;;;;5034223;28;20069;-63
2023/07/19 00:58:35;;;;;;;8.70;4.18;;;;;21.60;98368.00;;;;5017982;28;20065;-63
2023/07/19 01:01:04;;;;;;;4.90;3.85;;;;;21.50;98359.00;;;;5032529;28;20025;-63
2023/07/19 01:03:32;;;;;;;6.07;4.25;;;;;21.40;98352.00;;;;5034376;28;20093;-62
2023/07/19 01:06:00;;;;;;;5.07;4.30;;;;;21.40;98363.00;;;;5035099;28;20050;-62
2023/07/19 01:08:26;;;;;;;4.38;3.55;;;;;21.30;98365.00;;;;5035306;28;20076;-63
2023/07/19 01:10:53;;;;;;;5.05;3.90;;;;;21.30;98365.00;;;;5031672;28;20104;-62
2023/07/19 01:13:20;;;;;;;4.63;3.65;;;;;21.10;98361.00;;;;5031555;28;20054;-63
2023/07/19 01:15:47;;;;;;;4.57;3.63;;;;;21.00;98365.00;;;;5032425;28;20050;-63
2023/07/19 01:18:15;;;;;;;7.80;3.83;;;;;21.10;98364.00;;;;5035060;28;20048;-62
2023/07/19 01:20:42;;;;;;;6.20;3.88;;;;;21.00;98356.00;;;;5035689;28;20037;-62
2023/07/19 01:23:08;;;;;;;4.90;3.92;;;;;20.90;98360.00;;;;5019822;28;20030;-62
2023/07/19 01:25:35;;;;;;;7.95;4.57;;;;;20.80;98346.00;;;;5018907;28;20093;-63
2023/07/19 01:28:02;;;;;;;6.35;4.35;;;;;20.80;98345.00;;;;5037551;28;20045;-64
2023/07/19 01:30:28;;;;;;;6.32;3.85;;;;;20.80;98347.00;;;;5036361;28;20042;-64
2023/07/19 01:32:55;;;;;;;7.72;3.70;;;;;20.70;98345.00;;;;5036192;28;20045;-64
2023/07/19 01:35:22;;;;;;;6.70;4.57;;;;;20.80;98354.00;;;;5036984;28;20110;-62
2023/07/19 01:37:49;;;;;;;5.97;3.72;;;;;20.70;98353.00;;;;5033077;28;20148;-62
2023/07/19 01:40:16;;;;;;;10.95;4.20;;;;;20.60;98347.00;;;;5024448;28;20118;-62
2023/07/19 01:42:42;;;;;;;6.43;3.90;;;;;20.50;98349.00;;;;5023449;28;20049;-62
2023/07/19 01:45:09;;;;;;;7.80;4.57;;;;;20.50;98352.00;;;;5027110;28;20513;-62
2023/07/19 01:47:36;;;;;;;5.35;3.80;;;;;20.60;98350.00;;;;5027011;28;20060;-62
2023/07/19 01:50:03;;;;;;;4.07;3.53;;;;;20.70;98341.00;;;;5015469;28;20049;-62
2023/07/19 01:52:29;;;;;;;5.80;3.72;;;;;20.70;98343.00;;;;5011318;28;20050;-62
2023/07/19 01:54:56;;;;;;;4.60;3.65;;;;;20.70;98335.00;;;;5012614;28;20176;-62
2023/07/19 01:57:24;;;;;;;5.53;3.83;;;;;20.60;98335.00;;;;5011671;28;20474;-62
2023/07/19 01:59:50;;;;;;;4.82;3.85;;;;;20.50;98335.00;;;;5014294;28;20050;-61
2023/07/19 02:02:17;;;;;;;6.15;4.18;;;;;20.60;98324.00;;;;5017043;28;20137;-63
2023/07/19 02:04:43;;;;;;;4.95;4.35;;;;;20.60;98330.00;;;;5020185;28;20057;-62
2023/07/19 02:07:10;;;;;;;5.88;4.30;;;;;20.40;98327.00;;;;5024473;28;20200;-63
2023/07/19 02:09:37;;;;;;;5.72;4.30;;;;;20.40;98320.00;;;;5016414;28;20108;-62
2023/07/19 02:12:04;;;;;;;4.95;4.00;;;;;20.30;98321.00;;;;5016295;28;20038;-62
2023/07/19 02:14:30;;;;;;;5.88;4.00;;;;;20.30;98325.00;;;;5015934;28;20077;-62
2023/07/19 02:16:57;;;;;;;5.25;4.18;;;;;20.30;98336.00;;;;5015554;28;20065;-63
2023/07/19 02:19:23;;;;;;;7.93;4.20;;;;;20.30;98340.00;;;;5013937;28;20092;-62
2023/07/19 02:21:51;;;;;;;6.53;4.25;;;;;20.20;98335.00;;;;5015238;28;20051;-62
2023/07/19 02:24:18;;;;;;;6.15;4.05;;;;;20.30;98334.00;;;;4998053;28;20046;-62
2023/07/19 02:26:47;;;;;;;6.72;4.03;;;;;20.30;98337.00;;;;5014138;28;20423;-62
2023/07/19 02:29:14;;;;;;;7.85;4.47;;;;;20.30;98328.00;;;;5014178;28;20129;-61
2023/07/19 02:31:42;;;;;;;7.70;4.50;;;;;20.30;98318.00;;;;4998114;28;20429;-62
2023/07/19 02:34:10;;;;;;;8.48;4.20;;;;;20.40;98329.00;;;;5014457;28;20111;-61
2023/07/19 02:36:37;;;;;;;6.40;3.95;;;;;20.40;98327.00;;;;5014205;28;20582;-62
2023/07/19 02:39:04;;;;;;;7.88;4.70;;;;;20.40;98323.00;;;;5014072;28;20395;-62
2023/07/19 02:41:31;;;;;;;5.63;4.22;;;;;20.50;98335.00;;;;5014687;28;20045;-62
2023/07/19 02:43:59;;;;;;;6.88;4.53;;;;;20.40;98332.00;;;;5014774;28;20524;-62
2023/07/19 02:46:26;;;;;;;7.85;4.30;;;;;20.30;98335.00;;;;5013530;28;20100;-62
2023/07/19 02:48:52;;;;;;;6.93;4.30;;;;;20.20;98339.00;;;;5013495;28;20502;-62
2023/07/19 02:51:19;;;;;;;6.03;4.10;;;;;20.20;98331.00;;;;5014840;28;20594;-63
2023/07/19 02:53:47;;;;;;;8.52;4.47;;;;;20.10;98339.00;;;;5013977;28;20069;-62
2023/07/19 02:56:13;;;;;;;7.85;3.90;;;;;20.00;98338.00;;;;5014732;28;20105;-62
2023/07/19 02:58:40;;;;;;;6.53;4.63;;;;;20.00;98346.00;;;;5013259;28;20077;-62
2023/07/19 03:01:07;;;;;;;6.22;3.90;;;;;19.90;98350.00;;;;5013527;28;20056;-61
2023/07/19 03:03:33;;;;;;;5.20;4.07;;;;;19.90;98343.00;;;;5013542;28;20061;-61
2023/07/19 03:06:02;;;;;;;8.10;4.10;;;;;19.80;98354.00;;;;5013892;28;20073;-62
2023/07/19 03:08:28;;;;;;;5.20;4.35;;;;;19.80;98353.00;;;;4997183;28;20053;-62
2023/07/19 03:10:55;;;;;;;11.45;4.70;;;;;19.90;98353.00;;;;5012617;28;20046;-62
2023/07/19 03:13:22;;;;;;;4.72;4.00;;;;;19.90;98352.00;;;;5013076;28;20049;-62
2023/07/19 03:15:50;;;;;;;7.15;4.55;;;;;19.90;98357.00;;;;5014332;28;20034;-62
2023/07/19 03:18:16;;;;;;;12.48;5.22;;;;;20.00;98345.00;;;;5013036;28;20073;-62
2023/07/19 03:20:43;;;;;;;7.53;4.35;;;;;20.00;98368.00;;;;5012378;28;20044;-62
2023/07/19 03:23:10;;;;;;;8.95;4.70;;;;;19.90;98364.00;;;;5012834;28;20080;-63
2023/07/19 03:25:37;;;;;;;5.40;4.65;;;;;19.80;98356.00;;;;5012535;28;20045;-63
2023/07/19 03:28:04;;;;;;;5.45;4.05;;;;;19.80;98360.00;;;;5012664;28;20042;-63
2023/07/19 03:30:30;;;;;;;5.80;4.30;;;;;19.90;98366.00;;;;5012589;28;20140;-63
2023/07/19 03:32:58;;;;;;;7.80;4.78;;;;;19.80;98369.00;;;;5012302;28;20707;-63
2023/07/19 03:35:25;;;;;;;6.28;4.38;;;;;19.80;98364.00;;;;5012832;28;20453;-64
2023/07/19 03:37:51;;;;;;;8.23;5.18;;;;;19.80;98371.00;;;;5012552;28;20045;-63
2023/07/19 03:40:18;;;;;;;5.07;4.38;;;;;19.80;98372.00;;;;5012271;28;20147;-63
2023/07/19 03:42:45;;;;;;;7.40;4.40;;;;;19.70;98373.00;;;;4996274;28;20073;-63
2023/07/19 03:45:12;;;;;;;7.93;4.97;;;;;19.80;98380.00;;;;5012281;28;20124;-63
2023/07/19 03:47:39;;;;;;;6.70;4.25;;;;;19.80;98379.00;;;;4996380;28;20053;-63
2023/07/19 03:50:07;;;;;;;9.38;4.78;;;;;19.70;98376.00;;;;5012269;28;20046;-63
2023/07/19 03:52:34;;;;;;;6.10;4.68;;;;;19.60;98383.00;;;;5012121;28;20054;-63
2023/07/19 03:55:03;;;;;;;7.13;4.60;;;;;19.60;98373.00;;;;5012028;28;20054;-63
2023/07/19 03:57:32;;;;;;;8.52;4.60;;;;;19.60;98376.00;;;;5012037;28;20054;-63
2023/07/19 04:00:00;;;;;;;4.78;3.75;;;;;19.60;98378.00;;;;5012527;28;20132;-63
2023/07/19 04:02:26;;;;;;;6.13;4.60;;;;;19.70;98386.00;;;;5012599;28;20062;-62
2023/07/19 04:04:53;;;;;;;5.95;4.78;;;;;19.70;98383.00;;;;5012017;28;20092;-62
2023/07/19 04:07:21;;;;;;;7.80;4.55;;;;;19.80;98386.00;;;;5013303;28;20030;-62
2023/07/19 04:09:49;;;;;;;6.47;4.78;;;;;19.80;98373.00;;;;5011854;28;20053;-63
2023/07/19 04:12:16;;;;;;;9.05;5.70;;;;;19.90;98382.00;;;;5013038;28;20050;-63
2023/07/19 04:14:43;;;;;;;7.35;4.90;;;;;20.00;98384.00;;;;5013044;28;20038;-62
2023/07/19 04:17:10;;;;;;;7.45;4.70;;;;;20.00;98391.00;;;;5011713;28;20038;-63
2023/07/19 04:19:37;;;;;;;10.57;5.18;;;;;19.90;98379.00;;;;5013175;28;20092;-63
2023/07/19 04:22:04;;;;;;;6.32;4.60;;;;;19.90;98382.00;;;;5011231;28;20046;-63
2023/07/19 04:24:31;;;;;;;6.38;4.35;;;;;19.90;98395.00;;;;5010320;28;20423;-63
2023/07/19 04:26:57;;;;;;;9.68;4.65;;;;;19.90;98391.00;;;;5011424;28;20118;-63
2023/07/19 04:29:24;;;;;;;8.25;4.75;;;;;19.90;98390.00;;;;5011369;28;20054;-63
2023/07/19 04:31:50;;;;;;;6.68;4.75;;;;;19.80;98392.00;;;;5011333;28;20148;-63
2023/07/19 04:34:17;;;;;;;7.28;4.43;;;;;19.80;98388.00;;;;5012607;28;20080;-63
2023/07/19 04:36:44;;;;;;;7.07;4.90;;;;;19.90;98388.00;;;;5011441;28;20378;-63
2023/07/19 04:39:11;;;;;;;9.25;4.82;;;;;19.90;98394.00;;;;5011054;28;20056;-63
2023/07/19 04:41:39;;;;;;;7.38;5.18;;;;;20.00;98394.00;;;;5011246;28;20050;-63
2023/07/19 04:44:06;;;;;;;7.45;4.97;;;;;20.00;98392.00;;;;5011408;28;20042;-62
2023/07/19 04:46:32;;;;;;;9.73;4.80;;;;;20.10;98395.00;;;;5011196;28;20115;-62
2023/07/19 04:48:59;;;;;;;9.20;5.35;;;;;20.20;98401.00;;;;5011418;28;20096;-61
2023/07/19 04:51:26;;;;;;;6.90;5.15;;;;;20.30;98400.00;;;;5011107;28;20042;-62
2023/07/19 04:53:53;;;;;;;8.00;5.60;;;;;20.30;98395.00;;;;5011086;28;20077;-62
2023/07/19 04:56:20;;;;;;;5.47;4.88;;;;;20.40;98400.00;;;;5011165;28;20046;-62
2023/07/19 04:58:47;;;;;;;6.10;5.22;;;;;20.50;98406.00;;;;5012840;28;20517;-62
2023/07/19 05:01:14;;;;;;;5.78;4.70;;;;;20.50;98406.00;;;;5012509;28;20395;-62
2023/07/19 05:03:41;;;;;;;7.75;5.18;;;;;20.60;98404.00;;;;5010963;28;20054;-63
2023/07/19 05:06:08;;;;;;;8.90;4.93;;;;;20.70;98411.00;;;;4994754;28;20570;-62
2023/07/19 05:08:37;;;;;;;8.10;5.65;;;;;20.70;98404.00;;;;5011214;28;20042;-62
2023/07/19 05:11:04;;;;;;;7.22;5.05;;;;;20.80;98400.00;;;;5010500;28;20597;-62
2023/07/19 05:13:31;;;;;;;7.55;5.28;;;;;20.70;98393.00;;;;5010999;28;20128;-62
2023/07/19 05:15:59;;;;;;;9.07;5.50;;;;;20.80;98401.00;;;;5011102;28;20136;-61
2023/07/19 05:18:26;;;;;;;8.13;5.75;;;;;20.90;98403.00;;;;5010891;28;20131;-62
2023/07/19 05:20:53;;;;;;;6.90;5.07;;;;;20.90;98404.00;;;;5010440;28;20576;-62
2023/07/19 05:23:20;;;;;;;7.15;4.82;;;;;21.00;98400.00;;;;5011826;28;20557;-62
2023/07/19 05:25:47;;;;;;;7.65;5.25;;;;;21.00;98399.00;;;;5011866;28;20042;-62
2023/07/19 05:28:14;;;;;;;9.15;5.13;;;;;21.10;98404.00;;;;5012228;28;20060;-63
2023/07/19 05:30:40;;;;;;;11.60;6.43;;;;;21.10;98404.00;;;;5011811;28;20038;-63
2023/07/19 05:33:07;;;;;;;9.50;5.47;;;;;21.10;98407.00;;;;5010984;28;20558;-64
2023/07/19 05:35:33;;;;;;;6.60;5.32;;;;;21.20;98406.00;;;;5014471;28;20134;-63
2023/07/19 05:38:00;;;;;;;6.30;4.95;;;;;21.20;98412.00;;;;5014549;28;20137;-63
2023/07/19 05:40:27;;;;;;;6.72;5.57;;;;;21.30;98406.00;;;;5014338;28;20129;-62
2023/07/19 05:42:53;;;;;;;11.98;5.97;;;;;21.40;98408.00;;;;5015795;28;20133;-63
2023/07/19 05:45:20;;;;;;;9.38;6.18;;;;;21.40;98416.00;;;;5014668;28;20046;-63
2023/07/19 05:47:47;;;;;;;9.52;5.57;;;;;21.40;98410.00;;;;5014371;28;20062;-63
2023/07/19 05:50:14;;;;;;;9.98;5.60;;;;;21.40;98412.00;;;;5015491;28;20042;-63
2023/07/19 05:52:40;;;;;;;9.18;5.88;;;;;21.50;98417.00;;;;5015421;28;20529;-63
2023/07/19 05:55:07;;;;;;;9.02;5.53;;;;;21.50;98415.00;;;;5015549;28;20042;-63
2023/07/19 05:57:34;;;;;;;10.23;5.53;;;;;21.50;98414.00;;;;5015535;28;20041;-62
2023/07/19 06:00:13;;;;;;;6.78;5.97;;;;;21.60;98408.00;;;;5015325;28;20125;-62
2023/07/19 06:02:46;;;;;;;11.20;5.80;;;;;21.80;98413.00;;;;5015457;28;20045;-62
2023/07/19 06:05:21;;;;;;;9.63;6.22;;;;;21.90;98413.00;;;;5014467;28;20049;-63
2023/07/19 06:07:47;;;;;;;8.07;5.82;;;;;22.00;98416.00;;;;5014287;28;20042;-63
2023/07/19 06:10:14;;;;;;;13.98;6.50;;;;;21.90;98408.00;;;;5015103;28;20510;-63
2023/07/19 06:12:42;;;;;;;7.85;5.32;;;;;21.90;98415.00;;;;5015320;28;20607;-63
2023/07/19 06:15:09;;;;;;;10.05;5.97;;;;;22.00;98416.00;;;;5015296;28;20049;-63
2023/07/19 06:17:40;;;;;;;7.63;5.13;;;;;22.10;98415.00;;;;5015385;28;20426;-63
2023/07/19 06:20:07;;;;;;;10.50;5.20;;;;;22.20;98426.00;;;;5015133;28;20046;-63
2023/07/19 06:22:34;;;;;;;10.02;5.70;;;;;22.30;98418.00;;;;5015134;28;20045;-63
2023/07/19 06:25:00;;;;;;;11.30;5.10;;;;;22.40;98421.00;;;;5014987;28;20049;-64
2023/07/19 06:27:27;;;;;;;7.60;4.88;;;;;22.50;98416.00;;;;5014402;28;20459;-63
2023/07/19 06:29:54;;;;;;;8.23;5.00;;;;;22.60;98412.00;;;;5014531;28;20045;-63
2023/07/19 06:32:20;;;;;;;7.63;5.00;;;;;22.70;98418.00;;;;5014678;28;20494;-64
2023/07/19 06:34:47;;;;;;;6.78;4.95;;;;;22.70;98413.00;;;;5013569;28;20077;-63
2023/07/19 06:37:14;;;;;;;9.82;5.93;;;;;22.80;98419.00;;;;5013585;28;20048;-63
2023/07/19 06:39:41;;;;;;;5.45;4.82;;;;;22.90;98417.00;;;;5014388;28;20053;-63
2023/07/19 06:42:08;;;;;;;8.48;4.55;;;;;23.00;98407.00;;;;5014732;28;20042;-63
2023/07/19 06:44:35;;;;;;;8.55;5.28;;;;;23.10;98410.00;;;;5013316;28;20049;-63
2023/07/19 06:47:03;;;;;;;6.40;4.80;;;;;23.20;98402.00;;;;5013696;28;20046;-63
2023/07/19 06:49:30;;;;;;;7.05;4.57;;;;;23.20;98410.00;;;;5012969;28;20410;-63
2023/07/19 06:51:57;;;;;;;6.22;4.20;;;;;23.20;98406.00;;;;5014213;28;20468;-64
2023/07/19 06:54:23;;;;;;;8.98;4.32;;;;;23.30;98409.00;;;;5014211;28;20049;-63
2023/07/19 06:56:50;;;;;;;7.22;4.70;;;;;23.40;98407.00;;;;5014367;28;20469;-63
2023/07/19 06:59:17;;;;;;;6.40;4.30;;;;;23.50;98420.00;;;;5014429;28;20041;-63
2023/07/19 07:01:44;;;;;;;7.32;5.07;;;;;23.50;98412.00;;;;5014504;28;20476;-64
2023/07/19 07:04:11;;;;;;;7.57;5.00;;;;;23.60;98417.00;;;;5013262;28;20042;-63
2023/07/19 07:06:37;;;;;;;7.60;4.45;;;;;23.60;98421.00;;;;5012819;28;20046;-64
2023/07/19 07:09:04;;;;;;;8.85;4.28;;;;;23.70;98423.00;;;;5012981;28;20061;-63
2023/07/19 07:11:30;;;;;;;6.97;4.88;;;;;23.90;98423.00;;;;5013974;28;20065;-64
2023/07/19 07:13:57;;;;;;;5.75;4.88;;;;;24.00;98425.00;;;;5014105;28;20046;-64
2023/07/19 07:16:23;;;;;;;8.70;4.32;;;;;24.10;98423.00;;;;5013920;28;20041;-64
2023/07/19 07:18:50;;;;;;;9.65;4.50;;;;;24.20;98426.00;;;;5013943;28;20045;-64
2023/07/19 07:21:17;;;;;;;7.47;4.50;;;;;24.30;98423.00;;;;4996357;28;20058;-63
2023/07/19 07:23:44;;;;;;;5.85;4.32;;;;;24.40;98420.00;;;;5013817;28;20602;-63
2023/07/19 07:26:11;;;;;;;6.38;4.78;;;;;24.50;98417.00;;;;5013555;28;20118;-63
2023/07/19 07:28:38;;;;;;;5.88;4.10;;;;;24.60;98410.00;;;;5013933;28;20084;-63
2023/07/19 07:31:06;;;;;;;6.75;4.10;;;;;24.80;98407.00;;;;5012320;28;20050;-63
2023/07/19 07:33:32;;;;;;;6.13;4.35;;;;;25.00;98407.00;;;;5013813;28;20041;-62
2023/07/19 07:35:59;;;;;;;7.00;4.13;;;;;25.20;98414.00;;;;5013648;28;20649;-62
2023/07/19 07:38:26;;;;;;;6.47;4.15;;;;;25.30;98407.00;;;;4996157;28;20042;-63
2023/07/19 07:41:06;;;;;;;7.78;3.75;;;;;25.60;98407.00;;;;5013491;28;20502;-63
2023/07/19 07:43:33;;;;;;;6.82;3.90;;;;;25.70;98403.00;;;;5012467;28;20490;-62
2023/07/19 07:46:00;;;;;;;5.80;3.88;;;;;25.90;98389.00;;;;5012027;28;20060;-61
2023/07/19 07:48:27;;;;;;;8.02;3.72;;;;;26.00;98401.00;;;;5013204;28;20112;-62
2023/07/19 07:50:54;;;;;;;4.38;3.10;;;;;26.00;98397.00;;;;5013019;28;20402;-63
2023/07/19 07:53:21;;;;;;;7.50;3.40;;;;;26.20;98393.00;;;;5013398;28;20049;-63
2023/07/19 07:55:48;;;;;;;6.47;3.20;;;;;26.50;98389.00;;;;5013388;28;20050;-63
2023/07/19 07:58:16;;;;;;;5.63;3.83;;;;;26.60;98384.00;;;;5013297;28;20053;-62
2023/07/19 08:00:44;;;;;;;5.95;3.75;;;;;26.70;98381.00;;;;5012922;28;20404;-65
2023/07/19 08:03:11;;;;;;;7.43;3.50;;;;;26.80;98383.00;;;;5012215;28;20042;-66
2023/07/19 08:05:38;;;;;;;6.80;3.15;;;;;26.80;98373.00;;;;5013089;28;20111;-66
2023/07/19 08:08:06;;;;;;;4.65;3.22;;;;;26.80;98378.00;;;;5011940;28;20101;-66
2023/07/19 08:10:35;;;;;;;5.93;3.13;;;;;26.80;98367.00;;;;4995277;28;20081;-66
2023/07/19 08:13:02;;;;;;;5.45;3.22;;;;;26.80;98374.00;;;;5013111;28;20124;-66
2023/07/19 08:15:29;;;;;;;6.10;3.25;;;;;26.80;98365.00;;;;5012261;28;20554;-67
2023/07/19 08:17:55;;;;;;;5.60;3.30;;;;;26.80;98364.00;;;;5012042;28;20083;-66
2023/07/19 08:20:22;;;;;;;4.35;3.30;;;;;26.90;98357.00;;;;5013122;28;20042;-66
2023/07/19 08:22:48;;;;;;;6.40;3.15;;;;;27.00;98349.00;;;;5011778;28;20080;-66
2023/07/19 08:25:18;;;;;;;7.32;3.28;;;;;27.10;98359.00;;;;5012821;28;20100;-66
2023/07/19 08:27:53;;;;;;;3.50;2.90;;;;;27.20;98358.00;;;;5011956;28;20495;-66
2023/07/19 08:30:20;;;;;;;4.25;3.00;;;;;27.40;98351.00;;;;5012753;28;20088;-66
2023/07/19 08:32:47;;;;;;;5.05;2.50;;;;;27.50;98343.00;;;;5012578;28;20180;-66
2023/07/19 08:35:15;;;;;;;6.22;3.05;;;;;27.50;98347.00;;;;5011510;28;20046;-66
2023/07/19 08:37:43;;;;;;;4.63;2.80;;;;;27.60;98345.00;;;;5012722;28;20037;-65
2023/07/19 08:40:12;;;;;;;3.42;2.35;;;;;27.80;98335.00;;;;5012120;28;20046;-65
2023/07/19 08:42:39;;;;;;;4.45;2.20;;;;;27.80;98330.00;;;;5011397;28;20141;-65
2023/07/19 08:45:07;;;;;;;6.40;2.88;;;;;27.90;98340.00;;;;5011571;28;20061;-65
2023/07/19 08:47:35;;;;;;;3.30;2.05;;;;;28.00;98330.00;;;;5012518;28;20425;-65
2023/07/19 08:50:06;;;;;;;4.50;2.47;;;;;28.00;98329.00;;;;5011908;28;20126;-65
2023/07/19 08:52:33;;;;;;;4.30;2.85;;;;;28.10;98320.00;;;;5012530;28;20089;-65
2023/07/19 08:55:00;;;;;;;3.85;2.15;;;;;28.20;98324.00;;;;5012391;28;20470;-65
2023/07/19 08:57:28;;;;;;;4.22;2.25;;;;;28.20;98316.00;;;;5011163;28;20042;-65
2023/07/19 08:59:54;;;;;;;6.45;2.50;;;;;28.30;98319.00;;;;5012181;28;20042;-65
2023/07/19 09:02:21;;;;;;;5.22;2.03;;;;;28.30;98329.00;;;;5011229;28;20052;-65
2023/07/19 09:05:04;;;;;;;2.88;1.90;;;;;28.40;98314.00;;;;5011307;28;20415;-65
2023/07/19 09:07:33;;;;;;;4.38;1.88;;;;;28.60;98317.00;;;;5011315;28;20081;-65
2023/07/19 09:09:59;;;;;;;4.30;1.77;;;;;28.70;98315.00;;;;5010696;28;20085;-65
2023/07/19 09:12:39;;;;;;;6.00;2.10;;;;;28.90;98312.00;;;;4994980;28;20050;-64
2023/07/19 09:15:08;;;;;;;3.72;1.67;;;;;29.10;98322.00;;;;5011205;28;20046;-65
2023/07/19 09:17:37;;;;;;;7.43;2.17;;;;;29.30;98316.00;;;;4994703;28;20048;-65
2023/07/19 09:20:04;;;;;;;9.25;4.85;;;;;29.50;98313.00;;;;5011966;28;20054;-64
2023/07/19 09:22:31;;;;;;;5.13;2.22;;;;;29.80;98317.00;;;;5011873;28;20526;-65
2023/07/19 09:25:01;;;;;;;5.82;2.08;;;;;30.10;98320.00;;;;5012057;28;20080;-64
2023/07/19 09:27:28;;;;;;;5.45;1.85;;;;;30.20;98324.00;;;;5012146;28;20104;-64
2023/07/19 09:29:54;;;;;;;3.45;1.85;;;;;30.40;98315.00;;;;5010516;28;20066;-65
2023/07/19 09:32:22;;;;;;;6.63;2.42;;;;;30.60;98318.00;;;;5011655;28;20565;-65
2023/07/19 09:34:54;;;;;;;7.90;1.77;;;;;30.60;98320.00;;;;5012069;28;20054;-65
2023/07/19 09:37:22;;;;;;;5.35;1.73;;;;;30.60;98310.00;;;;5010939;28;20046;-65
2023/07/19 09:39:48;;;;;;;7.63;1.90;;;;;30.50;98324.00;;;;5010562;28;20517;-65
2023/07/19 09:42:15;;;;;;;2.17;1.55;;;;;30.50;98324.00;;;;5011937;28;20045;-65
2023/07/19 09:44:42;;;;;;;6.13;2.30;;;;;30.40;98323.00;;;;5011891;28;20494;-65
2023/07/19 09:47:10;;;;;;;4.03;1.80;;;;;30.30;98318.00;;;;4994315;28;20522;-65
2023/07/19 09:49:54;;;;;;;5.63;1.55;;;;;30.30;98322.00;;;;5011614;28;20075;-65
2023/07/19 09:52:24;;;;;;;5.65;1.83;;;;;30.40;98311.00;;;;5011797;28;20606;-65
2023/07/19 09:54:51;;;;;;;4.07;2.17;;;;;30.50;98312.00;;;;5011839;28;20053;-65
2023/07/19 09:57:18;;;;;;;3.78;1.77;;;;;30.50;98321.00;;;;5010378;28;20050;-65
2023/07/19 09:59:50;;;;;;;3.28;1.50;;;;;30.50;98310.00;;;;5010441;28;20108;-65
2023/07/19 10:02:17;;;;;;;4.47;1.73;;;;;30.50;98316.00;;;;5010329;28;20042;-65
2023/07/19 10:04:44;;;;;;;4.43;1.38;;;;;30.50;98308.00;;;;5011861;28;20523;-65
2023/07/19 10:07:14;;;;;;;4.85;1.92;;;;;30.50;98309.00;;;;5010557;28;20052;-65
2023/07/19 10:09:43;;;;;;;7.30;1.60;;;;;30.50;98310.00;;;;4993674;28;20052;-65
2023/07/19 10:12:16;;;;;;;5.13;1.83;;;;;30.70;98316.00;;;;5010231;28;20513;-65
2023/07/19 10:15:01;;;;;;;;;;;;;30.80;98313.00;;;;5012183;28;20406;-65
2023/07/19 10:17:37;;;;;;;5.82;1.85;;;;;30.90;98307.00;;;;5010353;28;20396;-65
2023/07/19 10:20:04;;;;;;;3.72;1.83;;;;;31.00;98307.00;;;;5010327;28;20042;-64
2023/07/19 10:22:55;;;;;;;5.65;1.98;;;;;30.80;98313.00;;;;5013566;28;20112;-64
2023/07/19 10:25:55;;;;;;;5.22;1.92;;;;;30.70;98306.00;;;;5013989;28;20558;-64
2023/07/19 10:28:29;;;;;;;3.95;2.10;;;;;30.80;98298.00;;;;5015360;28;20056;-64
2023/07/19 10:31:01;;;;;;;4.40;2.55;;;;;30.90;98292.00;;;;5013595;28;20065;-66
2023/07/19 10:33:48;;;;;;;7.75;2.67;;;;;31.00;98291.00;;;;4995811;28;20549;-65
2023/07/19 10:36:15;;;;;;;7.28;2.55;;;;;31.10;98287.00;;;;4994232;28;20121;-65
2023/07/19 10:38:41;;;;;;;5.30;1.95;;;;;31.10;98289.00;;;;4995381;28;20506;-65
2023/07/19 10:41:09;;;;;;;6.57;2.05;;;;;31.10;98293.00;;;;4994031;28;20054;-65
2023/07/19 10:43:37;;;;;;;4.53;2.17;;;;;31.00;98281.00;;;;5010344;28;20047;-64
2023/07/19 10:46:08;;;;;;;3.03;1.92;;;;;31.00;98280.00;;;;4994101;28;20050;-64
2023/07/19 10:48:37;;;;;;;5.20;2.22;;;;;31.00;98275.00;;;;5010320;28;20053;-64
2023/07/19 10:51:08;;;;;;;5.05;2.10;;;;;31.00;98279.00;;;;4993880;28;20446;-64
2023/07/19 10:53:42;;;;;;;7.53;2.40;;;;;31.10;98267.00;;;;4994968;28;20735;-63
2023/07/19 10:56:09;;;;;;;5.30;2.67;;;;;31.30;98264.00;;;;4993856;28;20042;-65
2023/07/19 10:58:35;;;;;;;6.05;2.22;;;;;31.30;98254.00;;;;4993700;28;20504;-65
2023/07/19 11:01:04;;;;;;;2.67;2.10;;;;;31.30;98259.00;;;;4993386;28;20054;-65
2023/07/19 11:03:32;;;;;;;7.97;2.60;;;;;31.30;98259.00;;;;4994855;28;20050;-65
2023/07/19 11:05:59;;;;;;;3.47;2.10;;;;;31.30;98251.00;;;;4993517;28;20042;-65
2023/07/19 11:08:27;;;;;;;12.50;2.30;;;;;31.10;98260.00;;;;4994622;28;20046;-65
2023/07/19 11:10:56;;;;;;;4.50;2.65;;;;;31.10;98252.00;;;;5009864;28;20058;-65
2023/07/19 11:13:25;;;;;;;4.97;2.50;;;;;31.20;98256.00;;;;5009899;28;20070;-65
2023/07/19 11:15:53;;;;;;;5.63;2.90;;;;;31.30;98259.00;;;;4993507;28;20193;-65
2023/07/19 11:18:27;;;;;;;4.32;2.60;;;;;31.30;98255.00;;;;4994269;28;20070;-65
2023/07/19 11:20:57;;;;;;;7.18;2.42;;;;;31.40;98255.00;;;;4993250;28;20126;-65
2023/07/19 11:23:25;;;;;;;4.22;2.10;;;;;31.40;98254.00;;;;4993214;28;20053;-65
2023/07/19 11:26:08;;;;;;;4.18;2.40;;;;;31.20;98248.00;;;;4994055;28;20125;-65
2023/07/19 11:28:52;;;;;;;9.93;2.83;;;;;31.00;98253.00;;;;4992899;28;20105;-65
2023/07/19 11:31:38;;;;;;;4.78;2.25;;;;;30.70;98252.00;;;;4992951;28;20050;-65
2023/07/19 11:34:10;;;;;;;7.57;2.60;;;;;30.40;98259.00;;;;4992414;28;20082;-65
2023/07/19 11:36:42;;;;;;;4.60;2.28;;;;;30.30;98260.00;;;;5009137;28;20049;-65
2023/07/19 11:39:23;;;;;;;3.92;2.47;;;;;30.40;98260.00;;;;4994034;28;20042;-65
2023/07/19 11:41:50;;;;;;;6.55;2.40;;;;;30.40;98261.00;;;;4994414;28;20495;-65
2023/07/19 11:44:19;;;;;;;5.65;2.63;;;;;30.30;98267.00;;;;4994330;28;20038;-69
2023/07/19 11:46:47;;;;;;;5.18;2.80;;;;;30.20;98248.00;;;;5009252;28;20038;-65
2023/07/19 11:49:14;;;;;;;13.07;2.67;;;;;30.20;98254.00;;;;4992467;28;20046;-65
2023/07/19 11:51:41;;;;;;;8.70;3.20;;;;;30.30;98254.00;;;;4994420;28;20085;-65
2023/07/19 11:54:08;;;;;;;5.90;2.80;;;;;30.30;98246.00;;;;4992985;28;20056;-65
2023/07/19 11:56:35;;;;;;;6.78;2.90;;;;;30.40;98255.00;;;;4992843;28;20043;-65
2023/07/19 11:59:02;;;;;;;4.97;2.50;;;;;30.40;98252.00;;;;4993721;28;20049;-65
2023/07/19 12:01:29;;;;;;;5.90;3.20;;;;;30.40;98262.00;;;;4993482;28;20042;-65
2023/07/19 12:03:59;;;;;;;7.90;3.03;;;;;30.40;98261.00;;;;4993660;28;20050;-65
2023/07/19 12:06:28;;;;;;;4.13;2.93;;;;;30.50;98252.00;;;;4992536;28;20085;-65
2023/07/19 12:08:54;;;;;;;6.55;3.00;;;;;30.70;98245.00;;;;4992315;28;20046;-65
2023/07/19 12:11:21;;;;;;;4.93;3.10;;;;;30.80;98252.00;;;;4993380;28;20046;-65
2023/07/19 12:13:49;;;;;;;6.03;2.53;;;;;30.80;98240.00;;;;4992593;28;20418;-66
2023/07/19 12:16:16;;;;;;;5.00;3.10;;;;;30.70;98240.00;;;;4993042;28;20054;-65
2023/07/19 12:18:43;;;;;;;5.82;3.65;;;;;30.70;98239.00;;;;4992129;28;20076;-65
2023/07/19 12:21:10;;;;;;;4.30;3.20;;;;;30.60;98240.00;;;;4992229;28;20084;-65
2023/07/19 12:23:37;;;;;;;4.82;3.35;;;;;30.60;98237.00;;;;4993501;28;20387;-65